Natural Bridge, Virginia
Current Conditions -  °F | °C
As of 9:15 AM on Tuesday 27 Jan 2015 (Local Time) from KHSP Reporting Station
Clear Clear  
Wind Chill: -4°   Ceiling: Unl
Heat Index: 12°   Visibility: 10mi
Dew Point: 10°   Wind: 15mph
Humidity: 93%   Direction: 280°W
Pressure: 29.64"   Gusts: NA
Location:  37.63°N, 79.54°W
Report Text: KHSP 271415Z AUTO 28013KT 10SM CLR M11/M12 A2964 RMK AO2 T11111120
Loading
Personal Weather Stations






























Interactive Weather Map New forecast layout! Learn more

10-Day Weather Forecast

Advertisements
Track Severe Weather on mobile